Custom Search

Airport METAR Reports

 

YMAV - Avalon Airport, Australia
Distance from station: 0 0km
Updated: 26/02/2017 23:00
Clear
Clear
 Wind from E
Wind: E 24 km/h
Temperature: 20°C
Dew Point: 14°C
Humidity: 69%
Barometer: 1020 hPa
Clouds: Clear
Visibility: 10 km
2017/02/26 12:00 YMAV 261200Z AUTO 09013KT 9999 // NCD 20/14 Q1020
YMML - Melbourne Intl A, Australia
Distance from station: NE 50km
Updated: 26/02/2017 23:00
Clear
Clear
 Wind from calm
Wind: Calm
Temperature: 19°C
Dew Point: 12°C
Humidity: 64%
Barometer: 1020 hPa
Summary: Clear
Visibility: greater than 10 km
2017/02/26 12:00 YMML 261200Z 00000KT CAVOK 19/12 Q1020 NOSIG
YMEN - Melbourne/Essend, Australia
Distance from station: NE 51km
Updated: 26/02/2017 23:00
Clear
Clear
 Wind from calm
Wind: Calm
Temperature: 21°C
Dew Point: 12°C
Humidity: 57%
Barometer: 1020 hPa
Clouds: Clear
Visibility: 10 km
2017/02/26 12:00 YMEN 261200Z AUTO 00000KT 9999 // NCD 21/12 Q1020
 
YWGT - Wangaratta Arp, Australia
Distance from station: NE 241km
Updated: 26/02/2017 23:00
Clear
Clear
 Wind from S
Wind: S 9 km/h
Temperature: 17°C
Dew Point: 10°C
Humidity: 64%
Barometer: 1020 hPa
Clouds: Clear
Visibility: 10 km
2017/02/26 12:00 YWGT 261200Z AUTO 19005KT 9999 // NCD 17/10 Q1020
YMAY - Albury Airport, Australia
Distance from station: NE 308km
Updated: 26/02/2017 23:00
Clear
Clear
 Wind from ENE
Wind: ENE 2 km/h
Temperature: 20°C
Dew Point: 10°C
Humidity: 53%
Barometer: 1020 hPa
Clouds: Clear
Visibility: 10 km
2017/02/26 12:00 YMAY 261200Z AUTO 06001KT 9999 // NCD 20/10 Q1020
YMTG - Mount Gambier, Australia
Distance from station: W 326km
Updated: 26/02/2017 22:00
Clear
Clear
 Wind from SSW
Wind: SSW 9 km/h
Temperature: 15°C
Dew Point: 13°C
Humidity: 88%
Barometer: 1020 hPa
Clouds: Clear
Visibility: 10 km
2017/02/26 11:00 YMTG 261100Z AUTO 20005KT 9999 // NCD 15/13 Q1020
 
YNAR - Narrandera, Australia
Distance from station: NNE 413km
Updated: 26/02/2017 22:00

 Wind from E
Wind: E 24 km/h
Temperature: 26°C
Dew Point: 9°C
Humidity: 34%
Barometer: 1019 hPa
2017/02/26 11:00 YNAR 261100Z AUTO 08013KT //// // ////// 26/09 Q1019
YSWG - Wagga Wagga(Cv/M, Australia
Distance from station: NE 418km
Updated: 26/02/2017 23:00
Clear
Clear
 Wind from ENE
Wind: ENE 26 km/h
Temperature: 21°C
Dew Point: 9°C
Humidity: 46%
Barometer: 1021 hPa
Clouds: Clear
Visibility: 10 km
2017/02/26 12:00 YSWG 261200Z AUTO 07014KT 9999 // NCD 21/09 Q1021
YCOM - Cooma Snowy Mtns, Australia
Distance from station: ENE 441km
Updated: 26/02/2017 22:00
Clear
Clear
 Wind from NNE
Wind: NNE 15 km/h
Temperature: 10°C
Wind Chill: 8°C
Dew Point: 7°C
Humidity: 82%
Barometer: 1027 hPa
Clouds: Clear
Visibility: 10 km
2017/02/26 11:00 YCOM 261100Z AUTO 03008KT 9999 // NCD 10/07 Q1027
 
YGTH - Griffith Arpt, Australia
Distance from station: NNE 444km
Updated: 26/02/2017 22:00
Clear
Clear
 Wind from E
Wind: E 20 km/h
Temperature: 25°C
Dew Point: 9°C
Humidity: 36%
Barometer: 1018 hPa
Clouds: Clear
Visibility: 10 km
2017/02/26 11:00 YGTH 261100Z AUTO 10011KT 9999 // NCD 25/09 Q1018
YMLT - Launceston Airpo, Australia
Distance from station: SSE 451km
Updated: 26/02/2017 23:00
Clear
Clear
 Wind from NNW
Wind: NNW 17 km/h
Temperature: 12°C
Dew Point: 7°C
Humidity: 72%
Barometer: 1027 hPa
Clouds: Clear
Visibility: 10 km
2017/02/26 12:00 YMLT 261200Z AUTO 33009KT 9999 // NCD 12/07 Q1027
YMIA - Mildura Arpt, Australia
Distance from station: NNW 474km
Updated: 26/02/2017 23:00
Clear
Clear
 Wind from S
Wind: S 11 km/h
Temperature: 25°C
Dew Point: 8°C
Humidity: 34%
Barometer: 1016 hPa
Clouds: Clear
Visibility: 10 km
2017/02/26 12:00 YMIA 261200Z AUTO 19006KT 9999 // NCD 25/08 Q1016
 
YMER - Merimbula Arpt, Australia
Distance from station: ENE 494km
Updated: 26/02/2017 23:00
Clear
Clear
 Wind from calm
Wind: Calm
Temperature: 14°C
Dew Point: 11°C
Humidity: 82%
Barometer: 1026 hPa
Clouds: Clear
2017/02/26 12:00 YMER 261200Z AUTO 00000KT //// // NCD 14/11 Q1026
YSCB - Canberra (civ/Mi, Australia
Distance from station: NE 518km
Updated: 26/02/2017 23:00
Clear
Clear
 Wind from calm
Wind: Calm
Temperature: 12°C
Dew Point: 9°C
Humidity: 82%
Barometer: 1026 hPa
Clouds: Clear
Visibility: 10 km
2017/02/26 12:00 YSCB 261200Z AUTO 00000KT 9999 // NCD 12/09 Q1026
YMHB - Hobart/Tasmania, Australia
Distance from station: SSE 590km
Updated: 26/02/2017 23:00
Clear
Clear
 Wind from S
Wind: S 11 km/h
Temperature: 16°C
Dew Point: 12°C
Humidity: 77%
Barometer: 1026 hPa
Clouds: Clear
Visibility: 10 km
2017/02/26 12:00 YMHB 261200Z AUTO 19006KT 9999 // NCD 16/12 Q1026